BLQ weather

Bologna Guglielmo Marconi Airport
Bologna, Emilia-Romagna, Italy

Public forecast

Using degrees Celsius for public forecast. Weather courtesy of forecast.io.

Current aviation weather report (METAR) for Bologna Guglielmo Marconi Airport

Retrieved 2020/02/26 22:20 UTC (27 minutes ago):

LIPE 262220Z 27010KT CAVOK 07/M08 Q1006

Aviation forecast (TAF) for Bologna Guglielmo Marconi Airport

Retrieved 2020/02/26 18:00 UTC (5 hours ago):

TAF LIPE 261700Z 2618/2718 20016G26KT 9999 SCT040 TEMPO 2618/2621 RA BECMG 2620/2622 28008KT BECMG 2710/2712 20012KT